Time;durP1;ratioP1;P1;durP2;ratioP2;P2;SDS_P1;SDS_P2;PMS_P1;PMS_P2;Temp;Humidity;BMP_temperature;BMP_pressure;BME280_temperature;BME280_humidity;BME280_pressure;Samples;Min_cycle;Max_cycle;Signal;HPM_P1;HPM_P2
2021/01/12 00:02:04;;;;;;;;;;;6.40;89.70;;;;;;5054528;28;19933;-71
2021/01/12 00:04:31;;;;;;;;;;;6.40;89.70;;;;;;5054902;28;19967;-72
2021/01/12 00:06:57;;;;;;;;;;;6.40;89.80;;;;;;5048501;28;20015;-72
2021/01/12 00:09:23;;;;;;;;;;;6.30;90.00;;;;;;5054940;28;19935;-72
2021/01/12 00:11:52;;;;;;;;;;;6.40;89.90;;;;;;5054544;28;20011;-72
2021/01/12 00:14:33;;;;;;;;;;;6.30;89.80;;;;;;5043651;28;20008;-72
2021/01/12 00:17:00;;;;;;;;;;;6.40;89.70;;;;;;5048731;28;19968;-73
2021/01/12 00:19:27;;;;;;;;;;;6.30;90.00;;;;;;5055009;28;20319;-71
2021/01/12 00:21:54;;;;;;;;;;;6.20;90.00;;;;;;5054199;28;19929;-71
2021/01/12 00:24:20;;;;;;;;;;;6.30;90.10;;;;;;5044668;28;19987;-71
2021/01/12 00:26:47;;;;;;;;;;;6.20;90.00;;;;;;5054140;28;20011;-71
2021/01/12 00:29:13;;;;;;;;;;;6.20;90.10;;;;;;5060627;28;19929;-72
2021/01/12 00:31:40;;;;;;;;;;;6.20;90.10;;;;;;5053447;28;20351;-72
2021/01/12 00:34:06;;;;;;;;;;;6.30;90.10;;;;;;5054043;28;20357;-72
2021/01/12 00:36:38;;;;;;;;;;;6.20;90.10;;;;;;5054228;28;19925;-71
2021/01/12 00:39:04;;;;;;;;;;;6.30;90.00;;;;;;5054314;28;20027;-71
2021/01/12 00:41:31;;;;;;;;;;;6.30;90.10;;;;;;5051250;28;19979;-72
2021/01/12 00:43:57;;;;;;;;;;;6.20;90.00;;;;;;5053924;28;20295;-72
2021/01/12 00:46:23;;;;;;;;;;;6.20;90.20;;;;;;5062510;28;20011;-72
2021/01/12 00:48:49;;;;;;;;;;;6.20;90.40;;;;;;5054017;28;20028;-72
2021/01/12 00:51:15;;;;;;;;;;;6.30;90.20;;;;;;5054054;28;19924;-71
2021/01/12 00:53:42;;;;;;;;;;;6.10;90.20;;;;;;5054378;28;20003;-72
2021/01/12 00:56:13;;;;;;;;;;;6.20;90.40;;;;;;5040805;28;19925;-72
2021/01/12 00:58:39;;;;;;;;;;;6.20;90.50;;;;;;5035281;28;20307;-70
2021/01/12 01:01:05;;;;;;;;;;;6.20;90.50;;;;;;5063367;28;19924;-71
2021/01/12 01:03:32;;;;;;;;;;;6.20;90.60;;;;;;5073878;28;19934;-71
2021/01/12 01:05:58;;;;;;;;;;;6.30;90.40;;;;;;5070359;28;20032;-71
2021/01/12 01:08:24;;;;;;;;;;;6.30;90.60;;;;;;5054121;28;19989;-71
2021/01/12 01:10:51;;;;;;;;;;;6.10;90.40;;;;;;5053649;28;19932;-70
2021/01/12 01:13:18;;;;;;;;;;;5.90;90.60;;;;;;5054018;28;20003;-72
2021/01/12 01:15:44;;;;;;;;;;;6.00;90.90;;;;;;5054024;28;19935;-70
2021/01/12 01:18:10;;;;;;;;;;;5.90;91.10;;;;;;5053347;28;19924;-70
2021/01/12 01:20:36;;;;;;;;;;;6.00;91.20;;;;;;5054150;28;20363;-73
2021/01/12 01:23:03;;;;;;;;;;;6.00;91.20;;;;;;5053224;28;20132;-71
2021/01/12 01:25:29;;;;;;;;;;;6.10;91.20;;;;;;5053716;28;20055;-71
2021/01/12 01:27:56;;;;;;;;;;;6.10;91.10;;;;;;5053284;28;19928;-72
2021/01/12 01:30:22;;;;;;;;;;;6.10;91.10;;;;;;5053689;28;20008;-70
2021/01/12 01:32:49;;;;;;;;;;;6.20;91.10;;;;;;5056112;28;20019;-71
2021/01/12 01:35:15;;;;;;;;;;;6.10;91.30;;;;;;5073329;28;19925;-71
2021/01/12 01:37:41;;;;;;;;;;;6.10;91.30;;;;;;5073726;28;19950;-71
2021/01/12 01:40:08;;;;;;;;;;;6.10;91.40;;;;;;5073047;28;19925;-71
2021/01/12 01:42:35;;;;;;;;;;;6.10;91.40;;;;;;5073051;28;20421;-71
2021/01/12 01:45:03;;;;;;;;;;;6.10;91.60;;;;;;5072945;28;19924;-70
2021/01/12 01:47:30;;;;;;;;;;;6.00;91.80;;;;;;5073249;28;20007;-70
2021/01/12 01:49:56;;;;;;;;;;;6.00;92.30;;;;;;5072867;28;19932;-72
2021/01/12 01:52:25;;;;;;;;;;;5.90;92.70;;;;;;5073195;28;19925;-70
2021/01/12 01:54:53;;;;;;;;;;;5.90;93.80;;;;;;5072905;28;20366;-71
2021/01/12 01:57:19;;;;;;;;;;;5.90;94.20;;;;;;5072884;28;20007;-71
2021/01/12 01:59:45;;;;;;;;;;;5.80;94.80;;;;;;5073215;28;19924;-71
2021/01/12 02:02:13;;;;;;;;;;;5.80;95.20;;;;;;5072560;28;20011;-71
2021/01/12 02:04:40;;;;;;;;;;;5.70;95.70;;;;;;5069547;28;19932;-71
2021/01/12 02:07:06;;;;;;;;;;;5.70;96.20;;;;;;5052705;28;19940;-71
2021/01/12 02:09:37;;;;;;;;;;;5.70;96.40;;;;;;5053253;28;20026;-71
2021/01/12 02:12:05;;;;;;;;;;;5.70;96.80;;;;;;5052609;28;20362;-71
2021/01/12 02:14:33;;;;;;;;;;;5.70;97.00;;;;;;5053135;28;20015;-70
2021/01/12 02:17:01;;;;;;;;;;;5.70;96.90;;;;;;5059542;28;20015;-70
2021/01/12 02:19:28;;;;;;;;;;;5.70;97.10;;;;;;5073135;28;19925;-70
2021/01/12 02:21:55;;;;;;;;;;;5.70;97.50;;;;;;5072610;28;19924;-70
2021/01/12 02:24:22;;;;;;;;;;;5.70;97.60;;;;;;5072358;28;19925;-70
2021/01/12 02:26:49;;;;;;;;;;;5.70;97.60;;;;;;5072908;28;19999;-70
2021/01/12 02:29:15;;;;;;;;;;;5.70;97.80;;;;;;5072728;28;20011;-70
2021/01/12 02:31:41;;;;;;;;;;;5.70;97.90;;;;;;5072805;28;19935;-70
2021/01/12 02:34:10;;;;;;;;;;;5.70;98.00;;;;;;5072953;28;20261;-70
2021/01/12 02:36:36;;;;;;;;;;;5.60;98.00;;;;;;5072556;28;20372;-70
2021/01/12 02:39:03;;;;;;;;;;;5.60;98.40;;;;;;5072649;28;20049;-70
2021/01/12 02:41:31;;;;;;;;;;;5.60;99.00;;;;;;5072233;28;19924;-70
2021/01/12 02:43:57;;;;;;;;;;;5.60;98.60;;;;;;5073104;28;20339;-70
2021/01/12 02:46:23;;;;;;;;;;;5.50;98.80;;;;;;5072589;28;19931;-70
2021/01/12 02:48:49;;;;;;;;;;;5.50;99.00;;;;;;5072882;28;20012;-70
2021/01/12 02:51:15;;;;;;;;;;;5.50;99.00;;;;;;5072750;28;19924;-70
2021/01/12 02:53:42;;;;;;;;;;;5.60;99.10;;;;;;5072639;28;19932;-70
2021/01/12 02:56:08;;;;;;;;;;;5.50;99.00;;;;;;5075552;28;20008;-70
2021/01/12 02:58:35;;;;;;;;;;;5.50;99.10;;;;;;5076437;28;20003;-70
2021/01/12 03:01:02;;;;;;;;;;;5.60;99.40;;;;;;5076825;28;20292;-70
2021/01/12 03:03:28;;;;;;;;;;;5.60;99.40;;;;;;5076420;28;19925;-70
2021/01/12 03:05:54;;;;;;;;;;;5.70;99.40;;;;;;5076391;28;20358;-70
2021/01/12 03:08:21;;;;;;;;;;;5.70;99.30;;;;;;5076665;28;19924;-70
2021/01/12 03:10:47;;;;;;;;;;;5.70;99.40;;;;;;5076205;28;19928;-70
2021/01/12 03:13:13;;;;;;;;;;;5.70;99.30;;;;;;5076493;28;20306;-70
2021/01/12 03:15:40;;;;;;;;;;;5.60;99.30;;;;;;5076054;28;20038;-70
2021/01/12 03:18:07;;;;;;;;;;;5.60;99.30;;;;;;5076280;28;20038;-70
2021/01/12 03:20:33;;;;;;;;;;;5.70;99.40;;;;;;5075845;28;19999;-70
2021/01/12 03:22:59;;;;;;;;;;;5.70;99.30;;;;;;5076448;28;19924;-70
2021/01/12 03:25:26;;;;;;;;;;;5.70;99.00;;;;;;5075933;28;19928;-70
2021/01/12 03:27:52;;;;;;;;;;;5.70;99.30;;;;;;5075924;28;20524;-70
2021/01/12 03:30:19;;;;;;;;;;;5.70;99.20;;;;;;5075995;28;20022;-69
2021/01/12 03:32:46;;;;;;;;;;;5.60;99.50;;;;;;5075384;28;20023;-69
2021/01/12 03:35:12;;;;;;;;;;;5.60;99.50;;;;;;5075833;28;19963;-70
2021/01/12 03:37:39;;;;;;;;;;;5.50;99.90;;;;;;5075771;28;20373;-69
2021/01/12 03:40:06;;;;;;;;;;;5.50;99.70;;;;;;5075935;28;20403;-70
2021/01/12 03:42:32;;;;;;;;;;;5.50;99.90;;;;;;5075609;28;20343;-71
2021/01/12 03:44:58;;;;;;;;;;;5.60;99.90;;;;;;5076008;28;20007;-71
2021/01/12 03:47:24;;;;;;;;;;;5.60;99.80;;;;;;5075697;28;20318;-70
2021/01/12 03:49:51;;;;;;;;;;;5.70;99.90;;;;;;5075429;28;20414;-69
2021/01/12 03:52:18;;;;;;;;;;;5.80;99.90;;;;;;5075509;28;20062;-69
2021/01/12 03:54:44;;;;;;;;;;;5.80;99.70;;;;;;5075346;28;19999;-70
2021/01/12 03:57:10;;;;;;;;;;;5.90;99.80;;;;;;5075610;28;19929;-69
2021/01/12 03:59:37;;;;;;;;;;;6.00;99.80;;;;;;5075327;28;20354;-69
2021/01/12 04:02:03;;;;;;;;;;;5.80;99.20;;;;;;5075526;28;20269;-69
2021/01/12 04:04:29;;;;;;;;;;;5.90;99.40;;;;;;5075396;28;20011;-70
2021/01/12 04:06:56;;;;;;;;;;;5.90;99.60;;;;;;5075013;28;20716;-70
2021/01/12 04:09:23;;;;;;;;;;;5.90;99.60;;;;;;5075547;28;20023;-71
2021/01/12 04:11:49;;;;;;;;;;;5.90;99.40;;;;;;5074947;28;20015;-71
2021/01/12 04:14:16;;;;;;;;;;;5.90;99.50;;;;;;5075411;28;20011;-69
2021/01/12 04:16:42;;;;;;;;;;;5.80;99.60;;;;;;5074750;28;19924;-71
2021/01/12 04:19:09;;;;;;;;;;;5.80;99.90;;;;;;5075253;28;19999;-72
2021/01/12 04:21:35;;;;;;;;;;;5.90;99.90;;;;;;5074674;28;19985;-71
2021/01/12 04:24:02;;;;;;;;;;;6.00;99.80;;;;;;5075259;28;19932;-72
2021/01/12 04:26:28;;;;;;;;;;;5.90;99.50;;;;;;5074842;28;20023;-72
2021/01/12 04:28:55;;;;;;;;;;;5.90;99.70;;;;;;5074698;28;20015;-72
2021/01/12 04:31:21;;;;;;;;;;;5.90;99.90;;;;;;5075101;28;19935;-72
2021/01/12 04:33:47;;;;;;;;;;;5.90;99.90;;;;;;5074629;28;19996;-72
2021/01/12 04:36:13;;;;;;;;;;;5.90;99.90;;;;;;5075254;28;19925;-72
2021/01/12 04:38:40;;;;;;;;;;;6.00;99.90;;;;;;5074630;28;19924;-72
2021/01/12 04:41:07;;;;;;;;;;;5.90;99.50;;;;;;5074901;28;20007;-72
2021/01/12 04:43:33;;;;;;;;;;;5.90;99.60;;;;;;5074847;28;20024;-72
2021/01/12 04:45:59;;;;;;;;;;;5.90;99.70;;;;;;5074271;28;20043;-70
2021/01/12 04:48:27;;;;;;;;;;;6.00;99.90;;;;;;5074741;28;19925;-70
2021/01/12 04:51:00;;;;;;;;;;;6.00;99.90;;;;;;5074160;28;19924;-72
2021/01/12 04:53:36;;;;;;;;;;;5.90;99.80;;;;;;5074520;28;20058;-71
2021/01/12 04:56:02;;;;;;;;;;;5.90;99.90;;;;;;5074053;28;19939;-70
2021/01/12 04:58:37;;;;;;;;;;;5.90;99.90;;;;;;5074660;28;19924;-72
2021/01/12 05:01:08;;;;;;;;;;;5.90;99.90;;;;;;5074003;28;19924;-70
2021/01/12 05:03:34;;;;;;;;;;;6.00;99.90;;;;;;5074275;28;20015;-70
2021/01/12 05:06:01;;;;;;;;;;;6.00;99.90;;;;;;5073534;28;19931;-71
2021/01/12 05:08:28;;;;;;;;;;;5.90;99.90;;;;;;5074222;28;19932;-72
2021/01/12 05:10:57;;;;;;;;;;;5.90;99.90;;;;;;5073685;28;19995;-71
2021/01/12 05:13:24;;;;;;;;;;;5.90;99.90;;;;;;5074231;28;19924;-72
2021/01/12 05:15:53;;;;;;;;;;;5.90;99.90;;;;;;5073777;28;19924;-72
2021/01/12 05:18:19;;;;;;;;;;;5.90;99.90;;;;;;5073519;28;19937;-72
2021/01/12 05:20:48;;;;;;;;;;;5.90;99.90;;;;;;5073544;28;19999;-72
2021/01/12 05:23:21;;;;;;;;;;;5.80;99.90;;;;;;5074124;28;19924;-72
2021/01/12 05:25:49;;;;;;;;;;;5.90;99.90;;;;;;5073282;28;19924;-72
2021/01/12 05:28:17;;;;;;;;;;;5.90;99.90;;;;;;5073976;28;19933;-72
2021/01/12 05:30:43;;;;;;;;;;;6.00;99.90;;;;;;5073677;28;19924;-72
2021/01/12 05:33:16;;;;;;;;;;;6.00;99.90;;;;;;5073722;28;19947;-72
2021/01/12 05:35:45;;;;;;;;;;;6.00;99.90;;;;;;5073252;28;20003;-71
2021/01/12 05:38:11;;;;;;;;;;;6.00;99.90;;;;;;5073857;28;20011;-71
2021/01/12 05:40:38;;;;;;;;;;;6.00;99.90;;;;;;5073651;28;19924;-71
2021/01/12 05:43:07;;;;;;;;;;;6.00;99.90;;;;;;5073278;28;20011;-71
2021/01/12 05:45:34;;;;;;;;;;;6.10;99.90;;;;;;5073405;28;19924;-71
2021/01/12 05:48:00;;;;;;;;;;;6.20;99.90;;;;;;5073177;28;20011;-71
2021/01/12 05:50:29;;;;;;;;;;;6.20;99.90;;;;;;5073474;28;20291;-71
2021/01/12 05:53:01;;;;;;;;;;;6.20;99.80;;;;;;5073289;28;19929;-71
2021/01/12 05:55:28;;;;;;;;;;;6.20;99.90;;;;;;5073414;28;20033;-71
2021/01/12 05:58:00;;;;;;;;;;;6.20;99.90;;;;;;5073041;28;19928;-71
2021/01/12 06:00:27;;;;;;;;;;;6.30;99.90;;;;;;5073743;28;19939;-71
2021/01/12 06:02:57;;;;;;;;;;;6.40;99.90;;;;;;5072979;28;19935;-71
2021/01/12 06:05:23;;;;;;;;;;;6.50;99.90;;;;;;5073130;28;19932;-71
2021/01/12 06:07:50;;;;;;;;;;;6.50;99.60;;;;;;5072968;28;19932;-71
2021/01/12 06:10:18;;;;;;;;;;;6.60;99.70;;;;;;5073113;28;19935;-71
2021/01/12 06:12:48;;;;;;;;;;;6.60;99.60;;;;;;5072673;28;19932;-71
2021/01/12 06:15:16;;;;;;;;;;;6.70;99.60;;;;;;5073081;28;19967;-71
2021/01/12 06:17:43;;;;;;;;;;;6.70;99.20;;;;;;5072869;28;19925;-71
2021/01/12 06:20:15;;;;;;;;;;;6.70;99.10;;;;;;5072685;28;20295;-71
2021/01/12 06:22:42;;;;;;;;;;;6.70;99.10;;;;;;5073126;28;20011;-71
2021/01/12 06:25:12;;;;;;;;;;;6.80;99.30;;;;;;5072487;28;19931;-71
2021/01/12 06:27:39;;;;;;;;;;;6.80;99.00;;;;;;5073028;28;19924;-71
2021/01/12 06:30:06;;;;;;;;;;;6.70;99.10;;;;;;5071812;28;19925;-72
2021/01/12 06:32:33;;;;;;;;;;;6.80;99.10;;;;;;5072792;28;20016;-72
2021/01/12 06:34:59;;;;;;;;;;;6.70;98.90;;;;;;5072451;28;20015;-72
2021/01/12 06:37:26;;;;;;;;;;;6.70;99.20;;;;;;5072790;28;19931;-71
2021/01/12 06:39:54;;;;;;;;;;;6.70;99.30;;;;;;5072453;28;19996;-72
2021/01/12 06:42:22;;;;;;;;;;;6.80;99.40;;;;;;5072761;28;19924;-71
2021/01/12 06:44:50;;;;;;;;;;;6.80;99.00;;;;;;5072394;28;19929;-71
2021/01/12 06:47:17;;;;;;;;;;;6.80;99.00;;;;;;5072461;28;20023;-71
2021/01/12 06:49:43;;;;;;;;;;;6.90;99.30;;;;;;5072663;28;19982;-71
2021/01/12 06:52:10;;;;;;;;;;;7.00;99.20;;;;;;5072273;28;20095;-72
2021/01/12 06:54:38;;;;;;;;;;;7.00;99.50;;;;;;5072610;28;20014;-72
2021/01/12 06:57:06;;;;;;;;;;;7.00;99.10;;;;;;5071950;28;20178;-72
2021/01/12 06:59:33;;;;;;;;;;;7.00;98.90;;;;;;5072975;28;20031;-72
2021/01/12 07:02:00;;;;;;;;;;;6.90;98.80;;;;;;5071903;28;20411;-71
2021/01/12 07:04:28;;;;;;;;;;;6.90;98.80;;;;;;5072510;28;19928;-72
2021/01/12 07:06:56;;;;;;;;;;;7.00;99.10;;;;;;5071986;28;20369;-72
2021/01/12 07:09:23;;;;;;;;;;;7.00;99.10;;;;;;5072657;28;19981;-71
2021/01/12 07:11:50;;;;;;;;;;;7.00;99.10;;;;;;5071991;28;19924;-72
2021/01/12 07:14:24;;;;;;;;;;;7.00;99.10;;;;;;5072562;28;19932;-71
2021/01/12 07:16:51;;;;;;;;;;;7.00;98.80;;;;;;5071855;28;19928;-72
2021/01/12 07:19:17;;;;;;;;;;;7.00;99.00;;;;;;5072232;28;19924;-72
2021/01/12 07:21:43;;;;;;;;;;;7.00;99.10;;;;;;5072438;28;19935;-71
2021/01/12 07:24:16;;;;;;;;;;;6.90;98.70;;;;;;5071998;28;19932;-71
2021/01/12 07:26:43;;;;;;;;;;;6.90;99.10;;;;;;5071927;28;19925;-71
2021/01/12 07:29:11;;;;;;;;;;;6.90;99.30;;;;;;5071814;28;19938;-71
2021/01/12 07:31:37;;;;;;;;;;;6.90;99.10;;;;;;5072012;28;19924;-71
2021/01/12 07:34:14;;;;;;;;;;;6.80;99.30;;;;;;5071790;28;19924;-71
2021/01/12 07:36:40;;;;;;;;;;;6.80;99.50;;;;;;5072153;28;20294;-71
2021/01/12 07:39:07;;;;;;;;;;;6.90;99.80;;;;;;5071907;28;20400;-71
2021/01/12 07:41:33;;;;;;;;;;;6.90;99.50;;;;;;5073717;28;20356;-71
2021/01/12 07:43:59;;;;;;;;;;;6.90;99.40;;;;;;5075515;28;20380;-71
2021/01/12 07:46:26;;;;;;;;;;;6.80;99.20;;;;;;5075468;28;19924;-71
2021/01/12 07:48:53;;;;;;;;;;;6.80;99.60;;;;;;5075316;28;20015;-71
2021/01/12 07:51:26;;;;;;;;;;;6.80;99.60;;;;;;5075502;28;19934;-71
2021/01/12 07:53:52;;;;;;;;;;;6.80;99.50;;;;;;5075299;28;20023;-71
2021/01/12 07:56:18;;;;;;;;;;;6.70;99.60;;;;;;5075504;28;20024;-71
2021/01/12 07:58:45;;;;;;;;;;;6.70;99.80;;;;;;5075784;28;19924;-71
2021/01/12 08:01:11;;;;;;;;;;;6.70;99.80;;;;;;5075050;28;20006;-71
2021/01/12 08:03:37;;;;;;;;;;;6.80;99.80;;;;;;5075620;28;19928;-71
2021/01/12 08:06:04;;;;;;;;;;;6.80;99.90;;;;;;5075091;28;19924;-71
2021/01/12 08:08:31;;;;;;;;;;;6.80;99.90;;;;;;5075506;28;19924;-71
2021/01/12 08:10:58;;;;;;;;;;;6.80;99.90;;;;;;5075042;28;19939;-71
2021/01/12 08:13:24;;;;;;;;;;;6.80;99.80;;;;;;5075424;28;19932;-71
2021/01/12 08:15:50;;;;;;;;;;;6.80;99.90;;;;;;5075435;28;19952;-71
2021/01/12 08:18:17;;;;;;;;;;;6.80;99.90;;;;;;5074873;28;20019;-71
2021/01/12 08:20:44;;;;;;;;;;;6.80;99.90;;;;;;5075225;28;20019;-71
2021/01/12 08:23:11;;;;;;;;;;;6.90;99.90;;;;;;5074769;28;20148;-71
2021/01/12 08:25:38;;;;;;;;;;;6.90;99.80;;;;;;5074640;28;19935;-71
2021/01/12 08:28:04;;;;;;;;;;;6.90;99.70;;;;;;5074623;28;19967;-71
2021/01/12 08:30:31;;;;;;;;;;;6.90;99.90;;;;;;5074819;28;20011;-71
2021/01/12 08:33:01;;;;;;;;;;;6.90;99.60;;;;;;5074536;28;20014;-71
2021/01/12 08:35:28;;;;;;;;;;;6.90;99.70;;;;;;5074770;28;19947;-71
2021/01/12 08:37:56;;;;;;;;;;;6.80;99.80;;;;;;5074827;28;20027;-71
2021/01/12 08:40:25;;;;;;;;;;;6.90;99.90;;;;;;5074572;28;19931;-71
2021/01/12 08:42:53;;;;;;;;;;;6.90;99.90;;;;;;5074596;28;20011;-71
2021/01/12 08:45:20;;;;;;;;;;;7.00;99.90;;;;;;5073751;28;20278;-70
2021/01/12 08:47:46;;;;;;;;;;;7.00;99.70;;;;;;5073979;28;20015;-70
2021/01/12 08:50:13;;;;;;;;;;;7.00;99.50;;;;;;5073938;28;19924;-70
2021/01/12 08:52:40;;;;;;;;;;;7.00;99.80;;;;;;5074026;28;20019;-70
2021/01/12 08:55:15;;;;;;;;;;;7.10;99.80;;;;;;5074074;28;20023;-71
2021/01/12 08:57:41;;;;;;;;;;;7.10;99.70;;;;;;5074302;28;20007;-71
2021/01/12 09:00:11;;;;;;;;;;;7.10;99.50;;;;;;5073907;28;19925;-71
2021/01/12 09:02:37;;;;;;;;;;;7.10;99.50;;;;;;5074432;28;19924;-71
2021/01/12 09:05:03;;;;;;;;;;;7.10;99.60;;;;;;5073883;28;19928;-71
2021/01/12 09:07:32;;;;;;;;;;;7.10;99.60;;;;;;5074353;28;19931;-71
2021/01/12 09:09:58;;;;;;;;;;;7.10;99.60;;;;;;5074328;28;19924;-71
2021/01/12 09:12:25;;;;;;;;;;;7.10;99.20;;;;;;5073808;28;20019;-71
2021/01/12 09:14:51;;;;;;;;;;;7.10;99.60;;;;;;5074286;28;19960;-71
2021/01/12 09:17:19;;;;;;;;;;;7.10;99.70;;;;;;5073518;28;20015;-71
2021/01/12 09:19:49;;;;;;;;;;;7.10;99.80;;;;;;5073945;28;20010;-71
2021/01/12 09:22:17;;;;;;;;;;;7.10;99.80;;;;;;5073799;28;19925;-71
2021/01/12 09:24:47;;;;;;;;;;;7.20;99.80;;;;;;5059196;28;19929;-71
2021/01/12 09:27:16;;;;;;;;;;;7.20;99.60;;;;;;5053380;28;19925;-71
2021/01/12 09:29:43;;;;;;;;;;;7.30;99.60;;;;;;5053987;28;20284;-71
2021/01/12 09:32:11;;;;;;;;;;;7.20;99.30;;;;;;5053580;28;20350;-71
2021/01/12 09:34:39;;;;;;;;;;;7.20;99.40;;;;;;5068605;28;20037;-72
2021/01/12 09:37:14;;;;;;;;;;;7.20;99.50;;;;;;5063746;28;20007;-72
2021/01/12 09:39:40;;;;;;;;;;;7.20;99.70;;;;;;5053670;28;20019;-71
2021/01/12 09:42:07;;;;;;;;;;;7.30;99.90;;;;;;5068575;28;20358;-71
2021/01/12 09:44:33;;;;;;;;;;;7.30;99.80;;;;;;5073665;28;19936;-71
2021/01/12 09:47:00;;;;;;;;;;;7.40;99.50;;;;;;5073345;28;19924;-71
2021/01/12 09:49:26;;;;;;;;;;;7.30;99.40;;;;;;5067185;28;20020;-71
2021/01/12 09:51:54;;;;;;;;;;;7.30;99.90;;;;;;5053355;28;20009;-71
2021/01/12 09:54:20;;;;;;;;;;;7.30;99.70;;;;;;5053046;28;19937;-72
2021/01/12 09:56:46;;;;;;;;;;;7.40;99.90;;;;;;5053184;28;20019;-71
2021/01/12 09:59:12;;;;;;;;;;;7.40;99.70;;;;;;5052999;28;19928;-71
2021/01/12 10:01:39;;;;;;;;;;;7.50;99.90;;;;;;5053282;28;19947;-71
2021/01/12 10:04:05;;;;;;;;;;;7.60;99.70;;;;;;5052732;28;20408;-71
2021/01/12 10:06:32;;;;;;;;;;;7.50;99.30;;;;;;5058637;28;20012;-72
2021/01/12 10:08:59;;;;;;;;;;;7.60;99.60;;;;;;5073106;28;19939;-71
2021/01/12 10:11:28;;;;;;;;;;;7.60;99.30;;;;;;5072560;28;20365;-71
2021/01/12 10:13:54;;;;;;;;;;;7.60;98.90;;;;;;5073246;28;19932;-71
2021/01/12 10:16:21;;;;;;;;;;;7.60;99.30;;;;;;5072393;28;19930;-71
2021/01/12 10:18:47;;;;;;;;;;;7.50;99.00;;;;;;5068616;28;20461;-71
2021/01/12 10:21:15;;;;;;;;;;;7.60;99.20;;;;;;5052248;28;20011;-72
2021/01/12 10:23:41;;;;;;;;;;;7.60;99.10;;;;;;5052780;28;19925;-69
2021/01/12 10:26:12;;;;;;;;;;;7.50;99.10;;;;;;5052300;28;20003;-72
2021/01/12 10:28:39;;;;;;;;;;;7.50;99.30;;;;;;5052930;28;19991;-72
2021/01/12 10:31:06;;;;;;;;;;;7.50;99.50;;;;;;5052432;28;20003;-72
2021/01/12 10:33:32;;;;;;;;;;;7.60;99.60;;;;;;5052830;28;19967;-72
2021/01/12 10:35:58;;;;;;;;;;;7.60;99.30;;;;;;5052600;28;19931;-72
2021/01/12 10:38:25;;;;;;;;;;;7.60;99.40;;;;;;5052277;28;20003;-72
2021/01/12 10:40:51;;;;;;;;;;;7.60;99.20;;;;;;5052728;28;19925;-72
2021/01/12 10:43:18;;;;;;;;;;;7.70;99.40;;;;;;5052438;28;19925;-72
2021/01/12 10:45:45;;;;;;;;;;;7.70;99.40;;;;;;5052421;28;19931;-72
2021/01/12 10:48:11;;;;;;;;;;;7.70;99.60;;;;;;5052438;28;20293;-72
2021/01/12 10:50:37;;;;;;;;;;;7.80;99.30;;;;;;5052619;28;19929;-72
2021/01/12 10:53:04;;;;;;;;;;;7.80;99.30;;;;;;5052889;28;20003;-72
2021/01/12 10:55:30;;;;;;;;;;;7.80;99.40;;;;;;5052389;28;20311;-72
2021/01/12 10:57:56;;;;;;;;;;;7.80;99.50;;;;;;5052713;28;20141;-72
2021/01/12 11:00:24;;;;;;;;;;;7.60;99.30;;;;;;5052377;28;19935;-72
2021/01/12 11:02:51;;;;;;;;;;;7.70;99.60;;;;;;5052480;28;19982;-69
2021/01/12 11:05:17;;;;;;;;;;;7.80;99.60;;;;;;5051823;28;20066;-72
2021/01/12 11:07:45;;;;;;;;;;;7.80;99.50;;;;;;5052721;28;19952;-72
2021/01/12 11:10:12;;;;;;;;;;;7.90;99.40;;;;;;5052042;28;19931;-72
2021/01/12 11:12:39;;;;;;;;;;;7.90;99.60;;;;;;5052538;28;20007;-72
2021/01/12 11:15:07;;;;;;;;;;;7.90;99.40;;;;;;5052721;28;19963;-69
2021/01/12 11:17:34;;;;;;;;;;;8.00;99.40;;;;;;5055149;28;19956;-70
2021/01/12 11:20:00;;;;;;;;;;;8.10;99.40;;;;;;5070492;28;19960;-70
2021/01/12 11:22:27;;;;;;;;;;;8.10;99.30;;;;;;5075947;28;19925;-70
2021/01/12 11:24:54;;;;;;;;;;;8.20;99.30;;;;;;5076224;28;19954;-69
2021/01/12 11:27:21;;;;;;;;;;;8.20;99.20;;;;;;5075304;28;20051;-69
2021/01/12 11:29:47;;;;;;;;;;;8.20;99.00;;;;;;5076220;28;19981;-70
2021/01/12 11:32:14;;;;;;;;;;;8.20;99.10;;;;;;5075616;28;20358;-70
2021/01/12 11:34:41;;;;;;;;;;;8.20;99.00;;;;;;5076287;28;19924;-70
2021/01/12 11:37:09;;;;;;;;;;;8.20;99.30;;;;;;5075896;28;19935;-69
2021/01/12 11:39:36;;;;;;;;;;;8.30;99.30;;;;;;5075865;28;20007;-70
2021/01/12 11:42:05;;;;;;;;;;;8.40;99.30;;;;;;5058581;28;20325;-70
2021/01/12 11:44:31;;;;;;;;;;;8.30;99.20;;;;;;5055561;28;19943;-70
2021/01/12 11:46:58;;;;;;;;;;;8.40;99.40;;;;;;5055651;28;19925;-70
2021/01/12 11:49:24;;;;;;;;;;;8.40;99.30;;;;;;5055418;28;19959;-69
2021/01/12 11:51:51;;;;;;;;;;;8.50;99.50;;;;;;5055401;28;20356;-70
2021/01/12 11:54:18;;;;;;;;;;;8.50;99.40;;;;;;5055210;28;19925;-70
2021/01/12 11:56:48;;;;;;;;;;;8.60;98.90;;;;;;5055584;28;20011;-70
2021/01/12 11:59:15;;;;;;;;;;;8.60;99.10;;;;;;5055344;28;19924;-70
2021/01/12 12:01:41;;;;;;;;;;;8.70;99.20;;;;;;5055503;28;19925;-70
2021/01/12 12:04:07;;;;;;;;;;;8.70;99.20;;;;;;5055700;28;20374;-70
2021/01/12 12:06:34;;;;;;;;;;;8.70;99.30;;;;;;5054992;28;19924;-70
2021/01/12 12:09:01;;;;;;;;;;;8.80;99.40;;;;;;5055399;28;20003;-70
2021/01/12 12:11:27;;;;;;;;;;;8.80;99.30;;;;;;5055053;28;20015;-70
2021/01/12 12:13:53;;;;;;;;;;;8.80;99.40;;;;;;5055512;28;19935;-70
2021/01/12 12:16:19;;;;;;;;;;;8.80;99.20;;;;;;5054763;28;19986;-70
2021/01/12 12:18:46;;;;;;;;;;;8.80;99.30;;;;;;5055121;28;20008;-70
2021/01/12 12:21:13;;;;;;;;;;;8.80;99.20;;;;;;5055149;28;19929;-70
2021/01/12 12:23:39;;;;;;;;;;;8.80;99.30;;;;;;5055180;28;19948;-70
2021/01/12 12:26:08;;;;;;;;;;;8.80;99.30;;;;;;5054847;28;19925;-70
2021/01/12 12:28:34;;;;;;;;;;;8.90;99.20;;;;;;5053456;28;20007;-70
2021/01/12 12:31:00;;;;;;;;;;;8.90;99.20;;;;;;5055082;28;20016;-70
2021/01/12 12:33:27;;;;;;;;;;;8.90;99.30;;;;;;5054489;28;20271;-70
2021/01/12 12:35:53;;;;;;;;;;;8.90;99.30;;;;;;5054627;28;19968;-70
2021/01/12 12:38:19;;;;;;;;;;;9.00;99.30;;;;;;5054354;28;20330;-70
2021/01/12 12:40:46;;;;;;;;;;;9.00;99.20;;;;;;5054502;28;20359;-70
2021/01/12 12:43:13;;;;;;;;;;;8.90;99.40;;;;;;5054768;28;20000;-70
2021/01/12 12:45:39;;;;;;;;;;;8.90;99.20;;;;;;5054087;28;19924;-70
2021/01/12 12:48:06;;;;;;;;;;;9.00;99.30;;;;;;5054382;28;19967;-70
2021/01/12 12:50:33;;;;;;;;;;;9.00;99.10;;;;;;5054081;28;19933;-71
2021/01/12 12:52:59;;;;;;;;;;;9.00;98.90;;;;;;5054512;28;20366;-70
2021/01/12 12:55:26;;;;;;;;;;;9.00;99.00;;;;;;5053729;28;20020;-70
2021/01/12 12:57:52;;;;;;;;;;;9.00;99.20;;;;;;5054575;28;20007;-70
2021/01/12 13:00:19;;;;;;;;;;;9.10;99.00;;;;;;5053924;28;20407;-71
2021/01/12 13:02:46;;;;;;;;;;;9.00;98.80;;;;;;5054110;28;20513;-71
2021/01/12 13:05:12;;;;;;;;;;;9.10;98.80;;;;;;5053995;28;19935;-71
2021/01/12 13:07:39;;;;;;;;;;;9.10;99.00;;;;;;5053604;28;19938;-70
2021/01/12 13:10:06;;;;;;;;;;;9.00;99.10;;;;;;5054147;28;19936;-70
2021/01/12 13:12:34;;;;;;;;;;;9.00;98.90;;;;;;5053624;28;19992;-70
2021/01/12 13:15:00;;;;;;;;;;;9.10;98.80;;;;;;5053885;28;20051;-70
2021/01/12 13:17:28;;;;;;;;;;;9.00;98.80;;;;;;5053397;28;20398;-70
2021/01/12 13:19:59;;;;;;;;;;;9.00;99.10;;;;;;5053192;28;20024;-70
2021/01/12 13:22:26;;;;;;;;;;;9.00;99.00;;;;;;5053325;28;20361;-70
2021/01/12 13:24:54;;;;;;;;;;;8.90;99.40;;;;;;5054065;28;20011;-70
2021/01/12 13:27:25;;;;;;;;;;;8.90;99.30;;;;;;5053260;28;19925;-70
2021/01/12 13:29:51;;;;;;;;;;;8.90;99.60;;;;;;5053788;28;19979;-70
2021/01/12 13:32:17;;;;;;;;;;;8.80;99.80;;;;;;5053448;28;19999;-71
2021/01/12 13:34:44;;;;;;;;;;;8.90;99.80;;;;;;5053221;28;19925;-71
2021/01/12 13:37:10;;;;;;;;;;;8.80;99.90;;;;;;5053405;28;20014;-70
2021/01/12 13:39:37;;;;;;;;;;;8.80;99.80;;;;;;5052885;28;20008;-71
2021/01/12 13:42:04;;;;;;;;;;;8.80;99.70;;;;;;5053282;28;19925;-70
2021/01/12 13:44:30;;;;;;;;;;;8.70;99.80;;;;;;5052903;28;20023;-70
2021/01/12 13:46:56;;;;;;;;;;;8.70;99.90;;;;;;5053163;28;19929;-71
2021/01/12 13:49:24;;;;;;;;;;;8.70;99.90;;;;;;5053020;28;19935;-71
2021/01/12 13:51:52;;;;;;;;;;;8.70;99.90;;;;;;5053017;28;19928;-71
2021/01/12 13:54:21;;;;;;;;;;;8.70;99.90;;;;;;5053385;28;20309;-71
2021/01/12 13:56:52;;;;;;;;;;;8.70;99.90;;;;;;5052885;28;19956;-71
2021/01/12 13:59:19;;;;;;;;;;;8.70;99.90;;;;;;5053330;28;20058;-71
2021/01/12 14:01:45;;;;;;;;;;;8.70;99.90;;;;;;5052713;28;20016;-72
2021/01/12 14:04:12;;;;;;;;;;;8.70;99.90;;;;;;5053203;28;20335;-71
2021/01/12 14:06:38;;;;;;;;;;;8.60;99.90;;;;;;5052483;28;20351;-71
2021/01/12 14:09:05;;;;;;;;;;;8.60;99.90;;;;;;5053071;28;20016;-71
2021/01/12 14:11:33;;;;;;;;;;;8.60;99.90;;;;;;5052595;28;20016;-71
2021/01/12 14:13:59;;;;;;;;;;;8.60;99.90;;;;;;5052856;28;19932;-71
2021/01/12 14:16:27;;;;;;;;;;;8.60;99.90;;;;;;5054395;28;19999;-71
2021/01/12 14:18:54;;;;;;;;;;;8.60;99.90;;;;;;5073010;28;20424;-71
2021/01/12 14:21:21;;;;;;;;;;;8.50;99.90;;;;;;5073021;28;20023;-71
2021/01/12 14:23:48;;;;;;;;;;;8.50;99.90;;;;;;5072586;28;20023;-71
2021/01/12 14:26:16;;;;;;;;;;;8.50;99.90;;;;;;5072734;28;19925;-71
2021/01/12 14:28:42;;;;;;;;;;;8.50;99.90;;;;;;5072518;28;20453;-71
2021/01/12 14:31:09;;;;;;;;;;;8.50;99.90;;;;;;5072721;28;19925;-71